createdAt,value
2023-01-20T00:01:26.549Z,51.20
2023-01-20T00:03:55.981Z,49.60
2023-01-20T00:06:25.593Z,48.40
2023-01-20T00:08:54.820Z,50.30
2023-01-20T00:11:22.612Z,49.90
2023-01-20T00:13:55.089Z,48.60
2023-01-20T00:16:23.164Z,47.60
2023-01-20T00:18:50.845Z,47.20
2023-01-20T00:21:18.940Z,40.50
2023-01-20T00:23:47.806Z,40.40
2023-01-20T00:26:18.069Z,39.40
2023-01-20T00:28:46.562Z,41.00
2023-01-20T00:31:19.562Z,39.60
2023-01-20T00:33:48.865Z,35.70
2023-01-20T00:36:18.452Z,36.40
2023-01-20T00:38:46.854Z,35.30
2023-01-20T00:41:15.158Z,36.00
2023-01-20T00:43:43.377Z,35.00
2023-01-20T00:46:11.676Z,35.90
2023-01-20T00:48:39.543Z,35.90
2023-01-20T00:51:07.793Z,36.10
2023-01-20T00:53:35.918Z,36.00
2023-01-20T00:56:04.312Z,36.90
2023-01-20T00:58:32.017Z,37.10
2023-01-20T01:01:00.194Z,36.50
2023-01-20T01:03:28.250Z,34.80
2023-01-20T01:06:07.349Z,34.10
2023-01-20T01:08:35.681Z,33.40
2023-01-20T01:11:04.115Z,31.80
2023-01-20T01:13:32.092Z,31.70
2023-01-20T01:15:59.939Z,31.90
2023-01-20T01:18:27.824Z,31.10
2023-01-20T01:20:55.709Z,30.80
2023-01-20T01:23:23.414Z,30.10
2023-01-20T01:25:51.096Z,29.20
2023-01-20T01:28:18.762Z,28.50
2023-01-20T01:30:46.575Z,29.90
2023-01-20T01:33:14.266Z,29.30
2023-01-20T01:35:41.920Z,29.20
2023-01-20T01:38:09.712Z,29.40
2023-01-20T01:40:37.403Z,29.00
2023-01-20T01:43:14.956Z,27.70
2023-01-20T01:45:42.619Z,30.70
2023-01-20T01:48:10.665Z,29.60
2023-01-20T01:51:00.891Z,30.20
2023-01-20T01:53:29.962Z,26.80
2023-01-20T01:55:59.960Z,27.30
2023-01-20T01:58:32.886Z,28.10
2023-01-20T02:01:01.042Z,26.20
2023-01-20T02:03:33.708Z,26.20
2023-01-20T02:06:02.464Z,26.40
2023-01-20T02:08:30.332Z,27.00
2023-01-20T02:10:57.987Z,26.90
2023-01-20T02:13:25.618Z,26.60
2023-01-20T02:16:21.167Z,24.90
2023-01-20T02:19:09.112Z,26.40
2023-01-20T02:21:58.786Z,25.30
2023-01-20T02:24:43.056Z,23.20
2023-01-20T02:27:38.869Z,24.10
2023-01-20T02:30:36.083Z,27.00
2023-01-20T02:33:29.968Z,25.70
2023-01-20T02:36:07.137Z,24.70
2023-01-20T02:38:46.622Z,25.50
2023-01-20T02:41:21.527Z,24.60
2023-01-20T02:44:31.429Z,24.50
2023-01-20T02:47:22.551Z,26.50
2023-01-20T02:50:20.836Z,27.50
2023-01-20T02:52:56.793Z,28.00
2023-01-20T02:55:40.497Z,28.70
2023-01-20T02:58:14.398Z,29.90
2023-01-20T03:00:49.555Z,32.00
2023-01-20T03:03:21.803Z,32.40
2023-01-20T03:05:54.376Z,30.90
2023-01-20T03:08:24.383Z,32.20
2023-01-20T03:10:52.681Z,32.50
2023-01-20T03:13:53.179Z,32.80
2023-01-20T03:16:22.836Z,32.80
2023-01-20T03:18:51.488Z,32.20
2023-01-20T03:21:19.227Z,32.90
2023-01-20T03:23:49.617Z,33.20
2023-01-20T03:26:19.127Z,33.60
2023-01-20T03:28:48.776Z,33.20
2023-01-20T03:31:24.459Z,34.90
2023-01-20T03:33:55.618Z,35.30
2023-01-20T03:36:25.390Z,35.30
2023-01-20T03:38:53.663Z,34.30
2023-01-20T03:41:36.224Z,34.50
2023-01-20T03:44:09.540Z,34.90
2023-01-20T03:47:02.916Z,37.60
2023-01-20T03:49:46.999Z,38.00
2023-01-20T03:52:47.363Z,37.80
2023-01-20T03:55:28.769Z,41.00
2023-01-20T03:58:06.084Z,42.60
2023-01-20T04:00:36.481Z,41.40
2023-01-20T04:03:09.247Z,43.00
2023-01-20T04:05:38.770Z,42.40
2023-01-20T04:08:09.242Z,42.30
2023-01-20T04:10:39.421Z,42.50
2023-01-20T04:13:07.172Z,42.40
2023-01-20T04:15:44.351Z,42.60
2023-01-20T04:18:18.201Z,43.30
2023-01-20T04:20:48.519Z,43.40
2023-01-20T04:23:24.119Z,43.60
2023-01-20T04:25:51.803Z,41.10
2023-01-20T04:28:19.480Z,42.20
2023-01-20T04:30:47.993Z,44.20
2023-01-20T04:33:15.731Z,43.80
2023-01-20T04:35:43.355Z,41.50
2023-01-20T04:38:11.020Z,41.60
2023-01-20T04:40:38.729Z,42.10
2023-01-20T04:43:06.432Z,44.90
2023-01-20T04:45:34.123Z,43.00
2023-01-20T04:48:06.016Z,45.10
2023-01-20T04:50:37.683Z,43.20
2023-01-20T04:53:05.314Z,43.90
2023-01-20T04:55:33.952Z,44.90
2023-01-20T04:58:01.656Z,45.60
2023-01-20T05:00:29.456Z,47.70
2023-01-20T05:02:58.572Z,46.70
2023-01-20T05:05:26.475Z,49.50
2023-01-20T05:07:55.395Z,51.50
2023-01-20T05:10:23.060Z,49.40
2023-01-20T05:12:50.997Z,49.30
2023-01-20T05:15:18.643Z,50.20
2023-01-20T05:17:46.424Z,52.50
2023-01-20T05:20:14.541Z,49.90
2023-01-20T05:22:42.208Z,50.80
2023-01-20T05:25:09.976Z,49.10
2023-01-20T05:27:37.700Z,50.60
2023-01-20T05:30:06.658Z,50.10
2023-01-20T05:32:34.429Z,48.90
2023-01-20T05:35:02.170Z,52.10
2023-01-20T05:37:29.952Z,49.00
2023-01-20T05:39:57.601Z,50.40
2023-01-20T05:42:25.273Z,50.00
2023-01-20T05:44:52.956Z,51.10
2023-01-20T05:47:20.606Z,50.00
2023-01-20T05:49:48.280Z,53.70
2023-01-20T05:52:15.934Z,54.70
2023-01-20T05:54:43.580Z,56.60
2023-01-20T05:57:11.488Z,58.00
2023-01-20T05:59:39.111Z,59.30
2023-01-20T06:02:06.783Z,59.10
2023-01-20T06:04:34.484Z,58.10
2023-01-20T06:07:02.145Z,58.90
2023-01-20T06:09:29.790Z,59.20
2023-01-20T06:11:57.475Z,60.40
2023-01-20T06:14:25.168Z,59.60
2023-01-20T06:16:52.840Z,60.20
2023-01-20T06:19:20.581Z,57.90
2023-01-20T06:21:48.313Z,58.10
2023-01-20T06:24:16.112Z,57.50
2023-01-20T06:26:43.788Z,57.40
2023-01-20T06:29:11.451Z,58.50
2023-01-20T06:31:39.452Z,58.50
2023-01-20T06:34:07.144Z,55.70
2023-01-20T06:36:34.851Z,54.90
2023-01-20T06:39:02.553Z,55.90
2023-01-20T06:41:30.214Z,57.30
2023-01-20T06:43:58.168Z,55.60
2023-01-20T06:46:26.172Z,56.30
2023-01-20T06:49:00.383Z,56.80
2023-01-20T06:51:30.314Z,54.10
2023-01-20T06:53:58.127Z,55.70
2023-01-20T06:56:26.157Z,52.50
2023-01-20T06:58:54.460Z,53.40
2023-01-20T07:01:25.155Z,55.10
2023-01-20T07:03:53.175Z,59.60
2023-01-20T07:06:32.152Z,78.80
2023-01-20T07:09:00.686Z,60.10
2023-01-20T07:11:30.527Z,62.10
2023-01-20T07:13:58.371Z,66.10
2023-01-20T07:16:26.057Z,59.70
2023-01-20T07:18:53.850Z,57.90
2023-01-20T07:21:24.565Z,58.30
2023-01-20T07:23:53.854Z,60.10
2023-01-20T07:26:24.209Z,64.40
2023-01-20T07:28:52.194Z,68.40
2023-01-20T07:31:22.692Z,63.10
2023-01-20T07:33:50.785Z,63.30
2023-01-20T07:36:18.888Z,64.70
2023-01-20T07:38:50.636Z,63.10
2023-01-20T07:41:19.977Z,65.00
2023-01-20T07:43:50.298Z,65.50
2023-01-20T07:46:19.463Z,65.30
2023-01-20T07:48:47.304Z,66.40
2023-01-20T07:51:16.298Z,66.40
2023-01-20T07:53:46.984Z,64.70
2023-01-20T07:56:18.124Z,73.70
2023-01-20T07:58:46.133Z,74.10
2023-01-20T08:01:16.831Z,69.90
2023-01-20T08:03:45.279Z,73.30
2023-01-20T08:06:14.702Z,69.60
2023-01-20T08:08:42.369Z,69.90
2023-01-20T08:11:12.533Z,65.90
2023-01-20T08:13:40.632Z,64.10
2023-01-20T08:16:10.663Z,67.30
2023-01-20T08:18:39.023Z,66.70
2023-01-20T08:21:08.395Z,67.40
2023-01-20T08:23:37.015Z,69.60
2023-01-20T08:26:06.735Z,66.90
2023-01-20T08:28:35.732Z,67.10
2023-01-20T08:31:12.846Z,66.30
2023-01-20T08:33:42.591Z,65.30
2023-01-20T08:36:25.771Z,64.80
2023-01-20T08:38:55.039Z,61.50
2023-01-20T08:41:28.493Z,58.90
2023-01-20T08:43:58.814Z,59.30
2023-01-20T08:46:26.762Z,57.40
2023-01-20T08:48:55.055Z,57.20
2023-01-20T08:51:28.464Z,59.30
2023-01-20T08:53:56.321Z,59.30
2023-01-20T08:56:24.052Z,58.10
2023-01-20T08:58:52.164Z,60.90
2023-01-20T09:01:22.392Z,62.10
2023-01-20T09:04:04.360Z,60.20
2023-01-20T09:06:42.295Z,57.50
2023-01-20T09:09:10.670Z,59.70
2023-01-20T09:11:39.420Z,60.50
2023-01-20T09:14:07.335Z,61.50
2023-01-20T09:16:35.408Z,64.70
2023-01-20T09:19:03.376Z,61.30
2023-01-20T09:21:31.250Z,58.50
2023-01-20T09:23:58.943Z,58.00
2023-01-20T09:26:36.019Z,60.80
2023-01-20T09:29:09.755Z,61.20
2023-01-20T09:31:39.640Z,58.30
2023-01-20T09:34:07.607Z,59.40
2023-01-20T09:36:35.352Z,56.50
2023-01-20T09:39:22.157Z,58.80
2023-01-20T09:42:09.115Z,57.00
2023-01-20T09:44:45.746Z,56.00
2023-01-20T09:47:31.707Z,55.30
2023-01-20T09:50:38.615Z,55.50
2023-01-20T09:53:23.360Z,51.80
2023-01-20T09:55:54.878Z,52.40
2023-01-20T09:58:56.323Z,52.80
2023-01-20T10:01:33.200Z,50.30
2023-01-20T10:04:22.619Z,51.00
2023-01-20T10:06:58.042Z,53.20
2023-01-20T10:09:28.518Z,55.70
2023-01-20T10:12:03.086Z,54.00
2023-01-20T10:14:34.715Z,56.40
2023-01-20T10:17:09.547Z,57.40
2023-01-20T10:19:52.457Z,56.00
2023-01-20T10:22:32.495Z,56.10
2023-01-20T10:25:06.643Z,55.60
2023-01-20T10:27:37.225Z,55.80
2023-01-20T10:30:10.432Z,56.00
2023-01-20T10:32:41.260Z,54.70
2023-01-20T10:35:19.344Z,53.60
2023-01-20T10:37:47.416Z,55.40
2023-01-20T10:40:31.587Z,53.20
2023-01-20T10:43:09.269Z,54.50
2023-01-20T10:45:52.660Z,55.80
2023-01-20T10:48:29.219Z,56.20
2023-01-20T10:51:21.460Z,57.00
2023-01-20T10:54:13.369Z,54.60
2023-01-20T10:56:46.010Z,56.10
2023-01-20T10:59:16.637Z,54.70
2023-01-20T11:01:51.880Z,54.20
2023-01-20T11:04:24.071Z,54.10
2023-01-20T11:06:55.803Z,55.90
2023-01-20T11:09:33.210Z,54.90
2023-01-20T11:12:04.300Z,53.40
2023-01-20T11:14:32.633Z,57.00
2023-01-20T11:17:05.893Z,55.70
2023-01-20T11:19:50.329Z,57.20
2023-01-20T11:22:29.575Z,54.60
2023-01-20T11:24:59.379Z,54.50
2023-01-20T11:27:30.065Z,54.20
2023-01-20T11:30:01.441Z,55.10
2023-01-20T11:32:32.351Z,54.40
2023-01-20T11:35:01.612Z,55.10
2023-01-20T11:37:38.616Z,55.30
2023-01-20T11:40:19.201Z,55.90
2023-01-20T11:42:48.863Z,55.10
2023-01-20T11:45:34.878Z,55.10
2023-01-20T11:48:17.489Z,53.90
2023-01-20T11:50:52.850Z,53.60
2023-01-20T11:53:22.761Z,52.20
2023-01-20T11:55:56.522Z,53.50
2023-01-20T11:58:32.230Z,53.00
2023-01-20T12:01:05.556Z,55.80
2023-01-20T12:03:42.457Z,56.20
2023-01-20T12:06:22.965Z,56.60
2023-01-20T12:09:04.155Z,57.80
2023-01-20T12:11:35.504Z,57.70
2023-01-20T12:14:30.409Z,62.70
2023-01-20T12:16:58.135Z,62.30
2023-01-20T12:19:35.663Z,62.40
2023-01-20T12:22:11.381Z,65.00
2023-01-20T12:25:06.709Z,66.80
2023-01-20T12:27:41.068Z,66.80
2023-01-20T12:30:35.038Z,65.90
2023-01-20T12:33:02.846Z,67.60
2023-01-20T12:35:34.522Z,68.50
2023-01-20T12:38:08.594Z,67.50
2023-01-20T12:40:56.540Z,68.00
2023-01-20T12:43:41.899Z,64.20
2023-01-20T12:46:26.025Z,63.30
2023-01-20T12:49:21.879Z,66.10
2023-01-20T12:52:05.424Z,68.20
2023-01-20T12:54:58.357Z,70.10
2023-01-20T12:57:43.348Z,65.90
2023-01-20T13:00:36.689Z,66.70
2023-01-20T13:03:55.421Z,68.30
2023-01-20T13:06:37.676Z,68.40
2023-01-20T13:09:36.267Z,71.50
2023-01-20T13:12:20.700Z,65.60
2023-01-20T13:14:56.261Z,68.70
2023-01-20T13:18:06.031Z,67.60
2023-01-20T13:20:34.218Z,65.40
2023-01-20T13:23:05.322Z,66.90
2023-01-20T13:25:34.948Z,65.40
2023-01-20T13:28:03.065Z,65.80
2023-01-20T13:30:44.252Z,63.30
2023-01-20T13:33:30.775Z,59.00
2023-01-20T13:36:00.194Z,58.90
2023-01-20T13:38:31.111Z,57.00
2023-01-20T13:41:05.675Z,58.20
2023-01-20T13:43:37.754Z,59.00
2023-01-20T13:46:05.814Z,58.40
2023-01-20T13:48:35.404Z,60.50
2023-01-20T13:51:15.568Z,56.60
2023-01-20T13:53:43.428Z,57.10
2023-01-20T13:56:25.621Z,57.30
2023-01-20T13:58:58.343Z,55.50
2023-01-20T14:01:27.910Z,55.20
2023-01-20T14:04:04.438Z,55.00
2023-01-20T14:06:36.013Z,53.30
2023-01-20T14:09:10.065Z,51.50
2023-01-20T14:11:49.450Z,51.00
2023-01-20T14:14:25.520Z,52.00
2023-01-20T14:16:53.510Z,53.10
2023-01-20T14:19:29.827Z,54.50
2023-01-20T14:22:16.747Z,79.50
2023-01-20T14:24:46.879Z,59.60
2023-01-20T14:27:17.672Z,59.70
2023-01-20T14:29:47.133Z,64.40
2023-01-20T14:32:24.857Z,65.60
2023-01-20T14:34:53.654Z,64.70
2023-01-20T14:37:33.363Z,66.50
2023-01-20T14:40:06.355Z,65.90
2023-01-20T14:42:34.128Z,57.70
2023-01-20T14:45:01.836Z,55.70
2023-01-20T14:47:30.994Z,58.50
2023-01-20T14:49:58.879Z,56.50
2023-01-20T14:52:29.518Z,55.10
2023-01-20T14:54:57.797Z,59.60
2023-01-20T14:57:32.797Z,60.80
2023-01-20T15:00:04.124Z,58.60
2023-01-20T15:02:34.232Z,61.80
2023-01-20T15:05:12.617Z,56.70
2023-01-20T15:07:40.887Z,57.50
2023-01-20T15:10:15.823Z,59.70
2023-01-20T15:12:46.761Z,57.70
2023-01-20T15:15:17.369Z,56.20
2023-01-20T15:18:23.225Z,58.70
2023-01-20T15:21:11.618Z,63.50
2023-01-20T15:23:45.825Z,67.60
2023-01-20T15:26:31.880Z,59.00
2023-01-20T15:28:59.580Z,60.20
2023-01-20T15:31:27.293Z,62.60
2023-01-20T15:33:54.964Z,61.90
2023-01-20T15:36:29.166Z,64.20
2023-01-20T15:38:56.887Z,61.60
2023-01-20T15:41:24.918Z,63.10
2023-01-20T15:43:52.766Z,61.20
2023-01-20T15:46:20.645Z,62.50
2023-01-20T15:48:48.316Z,62.10
2023-01-20T15:51:20.716Z,62.80
2023-01-20T15:53:48.664Z,63.80
2023-01-20T15:56:18.979Z,63.10
2023-01-20T15:58:47.390Z,61.30
2023-01-20T16:01:20.299Z,63.10
2023-01-20T16:03:48.005Z,63.10
2023-01-20T16:06:17.129Z,61.20
2023-01-20T16:08:47.173Z,62.80
2023-01-20T16:11:15.837Z,62.70
2023-01-20T16:13:44.141Z,62.80
2023-01-20T16:16:23.392Z,62.70
2023-01-20T16:18:51.137Z,66.80
2023-01-20T16:21:19.935Z,64.70
2023-01-20T16:23:47.697Z,64.80
2023-01-20T16:26:19.157Z,71.30
2023-01-20T16:28:46.852Z,71.30
2023-01-20T16:31:14.661Z,69.60
2023-01-20T16:33:42.558Z,67.00
2023-01-20T16:36:15.904Z,66.30
2023-01-20T16:38:44.488Z,63.70
2023-01-20T16:41:26.145Z,65.00
2023-01-20T16:43:55.063Z,64.90
2023-01-20T16:46:28.931Z,62.20
2023-01-20T16:49:00.830Z,65.10
2023-01-20T16:51:29.824Z,66.70
2023-01-20T16:53:58.138Z,76.80
2023-01-20T16:56:28.476Z,66.90
2023-01-20T16:58:57.795Z,70.50
2023-01-20T17:01:25.968Z,69.50
2023-01-20T17:03:56.284Z,71.40
2023-01-20T17:06:29.421Z,71.50
2023-01-20T17:08:59.689Z,71.80
2023-01-20T17:11:29.626Z,72.90
2023-01-20T17:13:57.921Z,74.20
2023-01-20T17:16:26.385Z,71.40
2023-01-20T17:18:56.386Z,70.20
2023-01-20T17:21:24.881Z,72.20
2023-01-20T17:23:55.103Z,68.30
2023-01-20T17:26:23.844Z,68.30
2023-01-20T17:28:59.236Z,68.20
2023-01-20T17:31:28.227Z,66.00
2023-01-20T17:33:56.190Z,66.70
2023-01-20T17:36:23.951Z,65.70
2023-01-20T17:38:51.659Z,66.00
2023-01-20T17:41:19.326Z,65.30
2023-01-20T17:43:47.072Z,69.90
2023-01-20T17:46:27.656Z,73.40
2023-01-20T17:49:08.134Z,68.30
2023-01-20T17:51:36.008Z,69.40
2023-01-20T17:54:04.271Z,69.40
2023-01-20T17:56:32.206Z,72.10
2023-01-20T17:58:59.985Z,69.10
2023-01-20T18:01:30.050Z,69.80
2023-01-20T18:03:58.999Z,67.20
2023-01-20T18:06:28.420Z,65.90
2023-01-20T18:08:58.875Z,65.80
2023-01-20T18:11:28.929Z,67.90
2023-01-20T18:13:57.838Z,67.00
2023-01-20T18:16:37.394Z,67.80
2023-01-20T18:19:05.174Z,63.70
2023-01-20T18:21:35.343Z,64.80
2023-01-20T18:24:05.657Z,62.60
2023-01-20T18:26:35.306Z,63.10
2023-01-20T18:29:06.050Z,62.30
2023-01-20T18:31:34.961Z,63.30
2023-01-20T18:34:05.463Z,61.70
2023-01-20T18:36:36.113Z,59.00
2023-01-20T18:39:15.253Z,63.90
2023-01-20T18:41:43.345Z,62.90
2023-01-20T18:44:11.802Z,62.90
2023-01-20T18:46:39.888Z,61.80
2023-01-20T18:49:09.710Z,61.80
2023-01-20T18:51:37.634Z,62.00
2023-01-20T18:54:09.548Z,65.40
2023-01-20T18:56:37.903Z,61.50
2023-01-20T18:59:06.547Z,59.40
2023-01-20T19:01:36.533Z,65.10
2023-01-20T19:04:05.758Z,60.80
2023-01-20T19:06:39.507Z,60.10
2023-01-20T19:09:08.110Z,57.40
2023-01-20T19:11:39.597Z,56.90
2023-01-20T19:14:11.058Z,57.10
2023-01-20T19:16:42.229Z,55.70
2023-01-20T19:19:10.718Z,55.80
2023-01-20T19:21:38.643Z,57.40
2023-01-20T19:24:08.044Z,54.30
2023-01-20T19:26:37.446Z,54.50
2023-01-20T19:29:07.962Z,59.60
2023-01-20T19:31:38.180Z,56.90
2023-01-20T19:34:07.303Z,53.00
2023-01-20T19:36:35.864Z,53.90
2023-01-20T19:39:04.103Z,61.20
2023-01-20T19:41:34.437Z,56.40
2023-01-20T19:44:04.838Z,54.80
2023-01-20T19:46:34.793Z,57.40
2023-01-20T19:49:03.077Z,55.10
2023-01-20T19:51:31.415Z,57.00
2023-01-20T19:54:01.048Z,53.60
2023-01-20T19:56:31.463Z,55.50
2023-01-20T19:59:02.875Z,54.90
2023-01-20T20:01:35.690Z,57.30
2023-01-20T20:04:08.597Z,57.00
2023-01-20T20:06:38.636Z,54.90
2023-01-20T20:09:15.777Z,54.20
2023-01-20T20:11:43.955Z,55.80
2023-01-20T20:14:14.264Z,52.60
2023-01-20T20:16:42.150Z,52.30
2023-01-20T20:19:13.431Z,52.00
2023-01-20T20:21:41.442Z,52.30
2023-01-20T20:24:12.507Z,50.00
2023-01-20T20:26:40.619Z,47.80
2023-01-20T20:29:08.928Z,46.20
2023-01-20T20:31:38.102Z,42.50
2023-01-20T20:34:08.601Z,42.60
2023-01-20T20:36:36.377Z,41.10
2023-01-20T20:39:04.984Z,38.70
2023-01-20T20:41:35.323Z,32.80
2023-01-20T20:44:04.028Z,33.20
2023-01-20T20:46:32.020Z,32.00
2023-01-20T20:49:01.136Z,31.30
2023-01-20T20:51:31.876Z,28.20
2023-01-20T20:54:01.358Z,27.70
2023-01-20T20:56:33.085Z,27.00
2023-01-20T20:59:03.378Z,25.00
2023-01-20T21:01:33.422Z,22.70
2023-01-20T21:04:04.662Z,21.30
2023-01-20T21:06:33.211Z,20.90
2023-01-20T21:09:01.099Z,21.30
2023-01-20T21:11:29.463Z,20.80
2023-01-20T21:13:57.223Z,22.90
2023-01-20T21:16:25.745Z,20.50
2023-01-20T21:18:56.098Z,18.80
2023-01-20T21:21:24.686Z,19.10
2023-01-20T21:23:57.131Z,21.90
2023-01-20T21:26:29.636Z,25.40
2023-01-20T21:29:01.661Z,27.10
2023-01-20T21:31:31.365Z,28.50
2023-01-20T21:34:00.322Z,27.50
2023-01-20T21:36:29.490Z,28.50
2023-01-20T21:38:58.818Z,27.40
2023-01-20T21:41:26.533Z,29.70
2023-01-20T21:44:13.110Z,32.60
2023-01-20T21:46:40.934Z,32.50
2023-01-20T21:49:27.559Z,32.30
2023-01-20T21:52:15.067Z,29.90
2023-01-20T21:54:45.511Z,27.10
2023-01-20T21:57:14.742Z,26.70
2023-01-20T21:59:43.181Z,26.00
2023-01-20T22:02:12.947Z,26.40
2023-01-20T22:04:41.484Z,24.70
2023-01-20T22:07:10.342Z,22.10
2023-01-20T22:09:39.096Z,21.30
2023-01-20T22:12:07.353Z,21.10
2023-01-20T22:14:35.094Z,21.10
2023-01-20T22:17:02.830Z,20.80
2023-01-20T22:19:30.496Z,19.90
2023-01-20T22:21:59.965Z,19.60
2023-01-20T22:24:28.415Z,20.20
2023-01-20T22:26:57.032Z,20.50
2023-01-20T22:29:25.290Z,20.30
2023-01-20T22:31:55.380Z,21.30
2023-01-20T22:34:23.272Z,22.10
2023-01-20T22:36:50.976Z,21.30
2023-01-20T22:39:18.825Z,21.90
2023-01-20T22:41:46.503Z,21.90
2023-01-20T22:44:14.237Z,21.80
2023-01-20T22:46:41.945Z,22.00
2023-01-20T22:49:09.883Z,21.60
2023-01-20T22:51:37.599Z,20.50
2023-01-20T22:54:07.150Z,19.40
2023-01-20T22:56:34.809Z,19.30
2023-01-20T22:59:02.535Z,18.50
2023-01-20T23:01:32.917Z,18.70
2023-01-20T23:04:03.778Z,18.80
2023-01-20T23:06:33.375Z,20.10
2023-01-20T23:09:03.768Z,18.60
2023-01-20T23:11:31.844Z,18.70
2023-01-20T23:14:00.247Z,17.80
2023-01-20T23:16:28.096Z,17.70
2023-01-20T23:18:56.001Z,18.10
2023-01-20T23:21:24.522Z,17.20
2023-01-20T23:23:54.923Z,17.70
2023-01-20T23:26:25.417Z,17.20
2023-01-20T23:28:53.963Z,16.90
2023-01-20T23:31:23.576Z,16.90
2023-01-20T23:33:53.295Z,17.70
2023-01-20T23:36:23.739Z,17.10
2023-01-20T23:38:56.417Z,17.90
2023-01-20T23:41:25.143Z,16.80
2023-01-20T23:43:52.980Z,18.90
2023-01-20T23:46:20.642Z,17.40
2023-01-20T23:48:48.375Z,18.30
2023-01-20T23:51:16.257Z,15.50
2023-01-20T23:53:44.222Z,16.90
2023-01-20T23:56:17.693Z,16.80
2023-01-20T23:58:45.792Z,15.70
